createdAt,value
2018-07-06T00:00:00.490Z,20.48
2018-07-06T00:01:56.457Z,20.38
2018-07-06T00:02:56.945Z,20.32
2018-07-06T00:04:52.420Z,20.34
2018-07-06T00:05:52.395Z,20.25
2018-07-06T00:07:49.859Z,20.20
2018-07-06T00:08:48.418Z,20.11
2018-07-06T00:10:44.374Z,20.10
2018-07-06T00:11:44.360Z,20.10
2018-07-06T00:13:40.295Z,20.08
2018-07-06T00:14:40.335Z,20.15
2018-07-06T00:16:37.772Z,20.07
2018-07-06T00:17:37.263Z,20.10
2018-07-06T00:19:33.228Z,20.12
2018-07-06T00:20:33.724Z,20.05
2018-07-06T00:22:29.663Z,19.98
2018-07-06T00:23:29.170Z,19.97
2018-07-06T00:25:25.626Z,19.95
2018-07-06T00:26:25.619Z,19.89
2018-07-06T00:28:22.084Z,19.80
2018-07-06T00:29:21.033Z,19.78
2018-07-06T00:31:17.495Z,19.75
2018-07-06T00:32:17.077Z,19.74
2018-07-06T00:34:15.962Z,19.79
2018-07-06T00:35:15.939Z,19.60
2018-07-06T00:37:11.068Z,19.67
2018-07-06T00:38:11.033Z,19.65
2018-07-06T00:40:07.016Z,19.65
2018-07-06T00:41:07.014Z,19.56
2018-07-06T00:43:03.983Z,19.57
2018-07-06T00:44:03.479Z,19.50
2018-07-06T00:45:59.454Z,19.53
2018-07-06T00:46:58.922Z,19.35
2018-07-06T00:48:55.966Z,19.37
2018-07-06T00:49:54.880Z,19.53
2018-07-06T00:51:51.837Z,19.43
2018-07-06T00:52:50.827Z,19.34
2018-07-06T00:54:46.816Z,19.27
2018-07-06T00:55:46.809Z,19.31
2018-07-06T00:57:45.768Z,19.31
2018-07-06T00:58:44.972Z,19.24
2018-07-06T01:00:41.431Z,19.24
2018-07-06T01:01:41.511Z,19.20
2018-07-06T01:03:37.882Z,19.15
2018-07-06T01:04:36.889Z,19.16
2018-07-06T01:06:33.841Z,19.09
2018-07-06T01:07:32.837Z,19.09
2018-07-06T01:09:28.775Z,18.96
2018-07-06T01:10:28.794Z,18.94
2018-07-06T01:12:25.754Z,19.05
2018-07-06T01:13:25.254Z,18.99
2018-07-06T01:15:20.716Z,19.00
2018-07-06T01:16:20.704Z,18.96
2018-07-06T01:18:16.662Z,18.94
2018-07-06T01:19:16.618Z,18.86
2018-07-06T01:21:12.589Z,18.84
2018-07-06T01:22:12.568Z,18.87
2018-07-06T01:24:08.535Z,18.93
2018-07-06T01:25:08.516Z,18.81
2018-07-06T01:27:04.446Z,18.79
2018-07-06T01:28:04.499Z,18.76
2018-07-06T01:30:00.437Z,18.78
2018-07-06T01:31:00.407Z,18.81
2018-07-06T01:32:56.354Z,18.75
2018-07-06T01:33:56.359Z,18.69
2018-07-06T01:35:53.823Z,18.68
2018-07-06T01:36:52.817Z,18.63
2018-07-06T01:38:48.783Z,18.57
2018-07-06T01:39:48.248Z,18.57
2018-07-06T01:41:44.210Z,18.65
2018-07-06T01:42:44.203Z,18.59
2018-07-06T01:44:40.174Z,18.60
2018-07-06T01:45:40.144Z,18.63
2018-07-06T01:47:36.097Z,18.63
2018-07-06T01:49:54.080Z,18.57
2018-07-06T01:50:52.050Z,18.50
2018-07-06T01:52:49.014Z,18.50
2018-07-06T01:53:48.045Z,18.47
2018-07-06T01:55:43.973Z,18.56
2018-07-06T01:56:43.977Z,18.51
2018-07-06T01:58:41.439Z,18.47
2018-07-06T01:59:39.906Z,18.49
2018-07-06T02:01:35.835Z,18.49
2018-07-06T02:02:35.855Z,18.38
2018-07-06T02:04:31.832Z,18.44
2018-07-06T02:05:31.787Z,18.38
2018-07-06T02:07:29.254Z,18.34
2018-07-06T02:08:27.748Z,18.31
2018-07-06T02:10:24.227Z,18.21
2018-07-06T02:11:24.207Z,18.20
2018-07-06T02:13:19.644Z,18.13
2018-07-06T02:14:19.634Z,18.13
2018-07-06T02:16:15.588Z,18.14
2018-07-06T02:17:15.588Z,18.14
2018-07-06T02:19:12.607Z,18.08
2018-07-06T02:20:11.564Z,18.01
2018-07-06T02:22:08.006Z,17.94
2018-07-06T02:23:07.519Z,17.95
2018-07-06T02:25:03.468Z,17.96
2018-07-06T02:26:03.473Z,17.95
2018-07-06T02:27:59.944Z,18.01
2018-07-06T02:28:59.399Z,17.90
2018-07-06T02:30:55.378Z,17.88
2018-07-06T02:31:55.864Z,17.84
2018-07-06T02:33:53.288Z,17.83
2018-07-06T02:34:53.319Z,17.86
2018-07-06T02:36:49.293Z,17.84
2018-07-06T02:37:49.275Z,17.88
2018-07-06T02:39:45.248Z,17.73
2018-07-06T02:40:45.207Z,17.76
2018-07-06T02:42:41.677Z,17.65
2018-07-06T02:43:41.204Z,17.66
2018-07-06T02:45:37.134Z,17.65
2018-07-06T02:46:37.646Z,17.69
2018-07-06T02:48:33.053Z,17.60
2018-07-06T02:49:33.053Z,17.68
2018-07-06T02:51:29.001Z,17.60
2018-07-06T02:52:29.513Z,17.63
2018-07-06T02:54:24.983Z,17.60
2018-07-06T02:55:24.982Z,17.54
2018-07-06T02:57:22.914Z,17.55
2018-07-06T02:58:22.919Z,17.50
2018-07-06T03:00:19.390Z,17.63
2018-07-06T03:01:18.866Z,17.55
2018-07-06T03:03:15.822Z,17.52
2018-07-06T03:04:15.837Z,17.50
2018-07-06T03:06:11.297Z,17.58
2018-07-06T03:07:10.781Z,17.55
2018-07-06T03:09:09.755Z,17.50
2018-07-06T03:10:09.745Z,17.57
2018-07-06T03:12:05.856Z,17.47
2018-07-06T03:13:04.882Z,17.52
2018-07-06T03:15:00.795Z,17.55
2018-07-06T03:16:00.826Z,17.49
2018-07-06T03:17:56.781Z,17.55
2018-07-06T03:18:56.766Z,17.52
2018-07-06T03:20:52.764Z,17.49
2018-07-06T03:21:52.735Z,17.50
2018-07-06T03:23:49.613Z,17.47
2018-07-06T03:24:48.679Z,17.50
2018-07-06T03:26:45.647Z,17.49
2018-07-06T03:27:45.671Z,17.49
2018-07-06T03:29:41.611Z,17.49
2018-07-06T03:30:42.104Z,17.40
2018-07-06T03:32:37.552Z,17.43
2018-07-06T03:33:37.549Z,17.54
2018-07-06T03:35:34.006Z,17.43
2018-07-06T03:36:33.535Z,17.52
2018-07-06T03:38:30.021Z,17.36
2018-07-06T03:39:29.438Z,17.39
2018-07-06T03:41:25.903Z,17.39
2018-07-06T03:42:25.368Z,17.31
2018-07-06T03:44:23.342Z,17.40
2018-07-06T03:45:23.313Z,17.30
2018-07-06T03:47:19.241Z,17.40
2018-07-06T03:48:19.266Z,17.40
2018-07-06T03:50:15.213Z,17.38
2018-07-06T03:51:16.670Z,17.42
2018-07-06T03:53:13.130Z,17.43
2018-07-06T03:54:13.167Z,17.35
2018-07-06T03:56:09.114Z,17.38
2018-07-06T03:57:09.091Z,17.42
2018-07-06T03:59:07.063Z,17.43
2018-07-06T04:00:07.046Z,17.39
2018-07-06T04:02:03.514Z,17.55
2018-07-06T04:03:03.013Z,17.54
2018-07-06T04:05:01.515Z,17.47
2018-07-06T04:06:01.206Z,17.39
2018-07-06T04:07:57.115Z,17.47
2018-07-06T04:08:57.600Z,17.49
2018-07-06T04:10:53.113Z,17.54
2018-07-06T04:11:53.091Z,17.54
2018-07-06T04:13:49.525Z,17.50
2018-07-06T04:14:49.556Z,17.52
2018-07-06T04:16:46.060Z,17.52
2018-07-06T04:17:44.987Z,17.58
2018-07-06T04:19:40.944Z,17.52
2018-07-06T04:20:41.997Z,17.43
2018-07-06T04:22:37.406Z,17.55
2018-07-06T04:23:36.912Z,17.54
2018-07-06T04:25:33.854Z,17.52
2018-07-06T04:26:33.059Z,17.57
2018-07-06T04:28:30.336Z,17.57
2018-07-06T04:29:28.788Z,17.55
2018-07-06T04:31:24.823Z,17.65
2018-07-06T04:32:24.716Z,17.68
2018-07-06T04:34:20.752Z,17.66
2018-07-06T04:35:20.707Z,17.66
2018-07-06T04:37:16.661Z,17.65
2018-07-06T04:38:16.644Z,17.68
2018-07-06T04:40:12.620Z,17.69
2018-07-06T04:41:12.605Z,17.66
2018-07-06T04:43:10.734Z,17.73
2018-07-06T04:44:10.730Z,17.80
2018-07-06T04:46:09.167Z,17.90
2018-07-06T04:47:08.702Z,17.96
2018-07-06T04:49:05.238Z,18.29
2018-07-06T04:50:04.630Z,18.39
2018-07-06T04:52:00.797Z,18.74
2018-07-06T04:53:00.600Z,18.97
2018-07-06T04:54:56.540Z,19.07
2018-07-06T04:55:56.582Z,19.16
2018-07-06T04:57:52.515Z,19.43
2018-07-06T04:58:52.508Z,19.56
2018-07-06T05:00:51.033Z,19.78
2018-07-06T05:01:50.459Z,19.80
2018-07-06T05:03:46.435Z,19.87
2018-07-06T05:04:46.424Z,19.87
2018-07-06T05:06:44.924Z,19.89
2018-07-06T05:07:44.388Z,19.89
2018-07-06T05:09:42.338Z,20.02
2018-07-06T05:10:42.833Z,20.02
2018-07-06T05:12:38.352Z,20.10
2018-07-06T05:13:39.272Z,20.26
2018-07-06T05:15:36.792Z,20.22
2018-07-06T05:16:37.263Z,20.34
2018-07-06T05:18:33.002Z,20.42
2018-07-06T05:19:32.401Z,20.37
2018-07-06T05:21:28.248Z,20.38
2018-07-06T05:22:28.803Z,20.49
2018-07-06T05:24:25.256Z,20.58
2018-07-06T05:25:25.339Z,20.64
2018-07-06T05:27:24.692Z,20.49
2018-07-06T05:28:24.731Z,20.53
2018-07-06T05:30:20.796Z,20.34
2018-07-06T05:31:20.638Z,20.51
2018-07-06T05:33:20.123Z,20.64
2018-07-06T05:34:20.800Z,20.63
2018-07-06T05:36:14.607Z,20.85
2018-07-06T05:37:15.094Z,20.86
2018-07-06T05:39:12.505Z,20.88
2018-07-06T05:40:13.068Z,20.88
2018-07-06T05:42:09.002Z,20.81
2018-07-06T05:43:08.499Z,20.81
2018-07-06T05:45:07.650Z,20.83
2018-07-06T05:46:06.473Z,21.00
2018-07-06T05:48:02.585Z,21.08
2018-07-06T05:49:02.391Z,21.11
2018-07-06T05:50:58.598Z,21.27
2018-07-06T05:51:58.633Z,21.40
2018-07-06T05:53:54.531Z,21.28
2018-07-06T05:54:55.302Z,21.34
2018-07-06T05:56:52.672Z,21.37
2018-07-06T05:57:52.764Z,21.09
2018-07-06T05:59:48.389Z,20.78
2018-07-06T06:00:48.235Z,20.72
2018-07-06T06:02:44.258Z,20.42
2018-07-06T06:03:44.225Z,20.34
2018-07-06T06:05:41.183Z,20.29
2018-07-06T06:06:41.125Z,20.26
2018-07-06T06:08:36.180Z,20.11
2018-07-06T06:09:37.031Z,20.08
2018-07-06T06:11:33.155Z,20.07
2018-07-06T06:12:33.004Z,20.10
2018-07-06T06:14:30.618Z,19.98
2018-07-06T06:15:30.607Z,20.00
2018-07-06T06:17:28.589Z,19.95
2018-07-06T06:18:28.454Z,19.92
2018-07-06T06:20:24.352Z,19.98
2018-07-06T06:21:24.208Z,20.00
2018-07-06T06:23:20.225Z,19.93
2018-07-06T06:24:20.187Z,19.98
2018-07-06T06:26:15.671Z,20.08
2018-07-06T06:27:15.886Z,20.05
2018-07-06T06:29:12.532Z,20.01
2018-07-06T06:30:12.535Z,19.92
2018-07-06T06:32:07.588Z,19.97
2018-07-06T06:33:07.627Z,19.93
2018-07-06T06:35:03.504Z,19.97
2018-07-06T06:36:03.532Z,19.86
2018-07-06T06:38:00.013Z,19.74
2018-07-06T06:38:59.605Z,19.83
2018-07-06T06:40:56.519Z,19.86
2018-07-06T06:41:55.513Z,19.90
2018-07-06T06:43:51.460Z,19.97
2018-07-06T06:44:51.471Z,20.02
2018-07-06T06:46:48.365Z,20.10
2018-07-06T06:47:47.438Z,20.11
2018-07-06T06:49:46.399Z,20.01
2018-07-06T06:50:45.469Z,19.98
2018-07-06T06:52:43.358Z,19.90
2018-07-06T06:53:43.377Z,19.92
2018-07-06T06:55:41.320Z,19.85
2018-07-06T06:56:41.353Z,19.83
2018-07-06T06:58:39.240Z,19.79
2018-07-06T06:59:39.260Z,19.75
2018-07-06T07:01:37.703Z,19.82
2018-07-06T07:02:37.217Z,19.83
2018-07-06T07:04:34.666Z,19.93
2018-07-06T07:05:33.140Z,19.97
2018-07-06T07:07:29.702Z,19.95
2018-07-06T07:08:29.092Z,20.07
2018-07-06T07:10:25.557Z,20.07
2018-07-06T07:11:25.565Z,20.11
2018-07-06T07:13:21.534Z,20.15
2018-07-06T07:14:21.515Z,20.20
2018-07-06T07:16:18.980Z,20.11
2018-07-06T07:17:18.965Z,20.07
2018-07-06T07:19:14.946Z,20.20
2018-07-06T07:20:15.930Z,20.22
2018-07-06T07:22:11.827Z,20.30
2018-07-06T07:23:10.881Z,20.35
2018-07-06T07:25:06.881Z,20.49
2018-07-06T07:26:06.846Z,20.35
2018-07-06T07:28:04.815Z,20.38
2018-07-06T07:29:04.782Z,20.32
2018-07-06T07:31:02.764Z,20.46
2018-07-06T07:32:03.264Z,20.41
2018-07-06T07:34:00.668Z,20.44
2018-07-06T07:35:00.702Z,20.54
2018-07-06T07:36:58.666Z,20.58
2018-07-06T07:37:58.642Z,20.53
2018-07-06T07:39:54.605Z,20.66
2018-07-06T07:40:55.605Z,20.66
2018-07-06T07:42:50.542Z,20.76
2018-07-06T07:43:50.569Z,20.68
2018-07-06T07:45:47.535Z,20.68
2018-07-06T07:46:47.555Z,20.78
2018-07-06T07:48:43.090Z,20.83
2018-07-06T07:49:42.486Z,20.78
2018-07-06T07:51:38.434Z,20.78
2018-07-06T07:52:38.431Z,20.81
2018-07-06T07:54:35.362Z,20.76
2018-07-06T07:55:34.374Z,20.78
2018-07-06T07:57:34.355Z,20.71
2018-07-06T07:58:33.341Z,20.63
2018-07-06T08:00:29.501Z,20.68
2018-07-06T08:01:28.546Z,20.67
2018-07-06T08:03:24.434Z,20.63
2018-07-06T08:04:24.942Z,20.67
2018-07-06T08:06:20.433Z,20.74
2018-07-06T08:07:20.424Z,20.68
2018-07-06T08:09:16.401Z,20.79
2018-07-06T08:10:16.877Z,20.79
2018-07-06T08:12:13.333Z,20.97
2018-07-06T08:13:12.346Z,21.13
2018-07-06T08:15:08.284Z,21.18
2018-07-06T08:16:08.283Z,21.13
2018-07-06T08:18:04.271Z,21.23
2018-07-06T08:19:04.751Z,21.25
2018-07-06T08:21:00.168Z,21.23
2018-07-06T08:22:01.675Z,21.09
2018-07-06T08:23:56.110Z,21.01
2018-07-06T08:24:56.110Z,21.00
2018-07-06T08:26:52.576Z,21.15
2018-07-06T08:27:52.062Z,21.12
2018-07-06T08:29:48.564Z,21.23
2018-07-06T08:30:49.533Z,21.33
2018-07-06T08:32:43.956Z,21.27
2018-07-06T08:33:43.962Z,21.22
2018-07-06T08:35:39.940Z,21.31
2018-07-06T08:36:40.930Z,21.33
2018-07-06T08:38:37.408Z,21.25
2018-07-06T08:39:35.936Z,21.22
2018-07-06T08:41:31.804Z,21.37
2018-07-06T08:42:33.345Z,21.33
2018-07-06T08:44:28.792Z,21.38
2018-07-06T08:45:27.796Z,21.34
2018-07-06T08:47:24.248Z,21.36
2018-07-06T08:48:23.804Z,21.25
2018-07-06T08:50:20.760Z,21.21
2018-07-06T08:51:19.827Z,21.27
2018-07-06T08:53:15.758Z,21.43
2018-07-06T08:54:15.757Z,21.43
2018-07-06T08:56:13.724Z,21.43
2018-07-06T08:57:13.725Z,21.34
2018-07-06T08:59:10.203Z,21.27
2018-07-06T09:00:09.721Z,21.23
2018-07-06T09:02:05.697Z,21.34
2018-07-06T09:03:05.676Z,21.28
2018-07-06T09:05:01.661Z,21.34
2018-07-06T09:06:01.637Z,21.33
2018-07-06T09:07:58.101Z,21.33
2018-07-06T09:08:57.550Z,21.31
2018-07-06T09:10:53.553Z,21.48
2018-07-06T09:11:53.553Z,21.43
2018-07-06T09:13:49.503Z,21.55
2018-07-06T09:14:49.494Z,21.53
2018-07-06T09:16:45.974Z,21.68
2018-07-06T09:17:45.970Z,21.55
2018-07-06T09:19:42.512Z,21.64
2018-07-06T09:20:41.403Z,21.59
2018-07-06T09:22:37.429Z,21.58
2018-07-06T09:23:38.880Z,21.66
2018-07-06T09:25:33.652Z,21.62
2018-07-06T09:26:33.816Z,21.66
2018-07-06T09:28:30.293Z,21.73
2018-07-06T09:29:29.242Z,21.82
2018-07-06T09:31:26.722Z,21.99
2018-07-06T09:32:25.203Z,21.92
2018-07-06T09:34:21.688Z,21.94
2018-07-06T09:35:21.162Z,22.00
2018-07-06T09:37:17.149Z,22.04
2018-07-06T09:38:17.152Z,22.15
2018-07-06T09:40:13.605Z,22.14
2018-07-06T09:41:13.126Z,22.24
2018-07-06T09:43:09.110Z,22.36
2018-07-06T09:44:09.570Z,22.42
2018-07-06T09:46:06.047Z,22.63
2018-07-06T09:47:05.537Z,22.73
2018-07-06T09:49:02.504Z,22.64
2018-07-06T09:50:01.504Z,22.42
2018-07-06T09:51:56.941Z,22.64
2018-07-06T09:52:56.944Z,22.73
2018-07-06T09:54:53.914Z,22.85
2018-07-06T09:55:53.418Z,22.71
2018-07-06T09:57:49.417Z,22.64
2018-07-06T09:58:48.909Z,22.61
2018-07-06T10:00:45.375Z,22.64
2018-07-06T10:01:44.858Z,22.78
2018-07-06T10:03:41.831Z,22.76
2018-07-06T10:04:40.859Z,22.76
2018-07-06T10:06:39.305Z,22.71
2018-07-06T10:07:38.986Z,22.71
2018-07-06T10:09:34.957Z,22.76
2018-07-06T10:10:34.923Z,22.88
2018-07-06T10:12:30.981Z,23.10
2018-07-06T10:13:31.887Z,23.12
2018-07-06T10:15:30.427Z,22.91
2018-07-06T10:16:29.884Z,22.94
2018-07-06T10:18:24.964Z,23.07
2018-07-06T10:19:25.002Z,22.96
2018-07-06T10:21:21.433Z,23.07
2018-07-06T10:22:20.926Z,23.16
2018-07-06T10:24:16.979Z,23.22
2018-07-06T10:25:16.886Z,23.25
2018-07-06T10:27:12.883Z,23.22
2018-07-06T10:28:13.785Z,23.42
2018-07-06T10:30:09.368Z,23.44
2018-07-06T10:31:08.848Z,23.41
2018-07-06T10:33:07.397Z,23.26
2018-07-06T10:34:07.789Z,23.22
2018-07-06T10:36:02.911Z,23.21
2018-07-06T10:37:02.907Z,23.35
2018-07-06T10:38:58.879Z,23.32
2018-07-06T10:39:59.526Z,23.28
2018-07-06T10:41:55.344Z,23.40
2018-07-06T10:42:54.845Z,23.35
2018-07-06T10:44:50.841Z,23.42
2018-07-06T10:45:50.848Z,23.53
2018-07-06T10:47:47.431Z,23.37
2018-07-06T10:48:46.861Z,23.45
2018-07-06T10:50:41.516Z,23.42
2018-07-06T10:51:41.779Z,23.34
2018-07-06T10:53:37.478Z,23.47
2018-07-06T10:54:38.022Z,23.47
2018-07-06T10:56:34.440Z,23.42
2018-07-06T10:57:33.428Z,23.38
2018-07-06T10:59:31.937Z,23.37
2018-07-06T11:00:31.608Z,23.41
2018-07-06T11:02:29.575Z,23.53
2018-07-06T11:03:29.541Z,23.57
2018-07-06T11:05:27.479Z,23.74
2018-07-06T11:06:27.503Z,23.60
2018-07-06T11:08:24.462Z,23.82
2018-07-06T11:09:23.614Z,23.74
2018-07-06T11:11:20.496Z,23.89
2018-07-06T11:12:19.472Z,23.87
2018-07-06T11:14:15.420Z,23.74
2018-07-06T11:15:16.536Z,23.74
2018-07-06T11:17:18.163Z,23.78
2018-07-06T11:18:18.137Z,23.81
2018-07-06T11:20:16.102Z,23.70
2018-07-06T11:21:16.104Z,23.75
2018-07-06T11:23:12.065Z,23.81
2018-07-06T11:24:12.063Z,23.97
2018-07-06T11:26:08.035Z,24.21
2018-07-06T11:27:08.055Z,24.26
2018-07-06T11:29:04.031Z,24.17
2018-07-06T11:30:04.015Z,24.29
2018-07-06T11:32:00.025Z,24.33
2018-07-06T11:32:59.968Z,24.27
2018-07-06T11:34:55.981Z,24.49
2018-07-06T11:35:56.929Z,24.48
2018-07-06T11:37:51.961Z,24.54
2018-07-06T11:38:52.422Z,24.52
2018-07-06T11:40:47.862Z,24.55
2018-07-06T11:41:48.852Z,24.46
2018-07-06T11:43:44.847Z,24.39
2018-07-06T11:44:43.815Z,24.46
2018-07-06T11:46:41.927Z,24.61
2018-07-06T11:47:41.953Z,24.69
2018-07-06T11:49:40.428Z,24.75
2018-07-06T11:50:40.124Z,24.82
2018-07-06T11:52:36.116Z,25.09
2018-07-06T11:53:36.101Z,25.09
2018-07-06T11:55:32.059Z,25.24
2018-07-06T11:56:32.563Z,25.37
2018-07-06T11:58:53.368Z,25.05
2018-07-06T11:59:53.385Z,25.01
2018-07-06T12:01:49.340Z,24.86
2018-07-06T12:02:49.320Z,24.90
2018-07-06T12:04:45.811Z,24.78
2018-07-06T12:05:45.276Z,24.89
2018-07-06T12:07:41.285Z,24.93
2018-07-06T12:08:42.243Z,25.04
2018-07-06T12:10:37.735Z,25.14
2018-07-06T12:11:37.256Z,25.26
2018-07-06T12:13:33.714Z,25.44
2018-07-06T12:14:33.196Z,25.52
2018-07-06T12:16:29.693Z,25.48
2018-07-06T12:17:29.193Z,25.45
2018-07-06T12:19:25.163Z,25.71
2018-07-06T12:21:41.154Z,25.57
2018-07-06T12:22:41.627Z,25.62
2018-07-06T12:24:37.139Z,25.52
2018-07-06T12:25:37.089Z,25.56
2018-07-06T12:27:35.606Z,25.62
2018-07-06T12:28:35.269Z,25.59
2018-07-06T12:30:33.263Z,25.63
2018-07-06T12:31:35.243Z,25.78
2018-07-06T12:33:31.724Z,25.81
2018-07-06T12:34:31.417Z,25.69
2018-07-06T12:36:27.914Z,25.62
2018-07-06T12:37:28.897Z,25.75
2018-07-06T12:39:26.849Z,25.85
2018-07-06T12:40:25.516Z,26.03
2018-07-06T12:42:24.497Z,25.93
2018-07-06T12:43:23.484Z,25.93
2018-07-06T12:45:21.466Z,26.00
2018-07-06T12:46:21.455Z,26.16
2018-07-06T12:48:17.366Z,26.38
2018-07-06T12:49:17.971Z,26.35
2018-07-06T12:51:14.852Z,26.27
2018-07-06T12:52:15.343Z,26.26
2018-07-06T12:54:10.813Z,26.30
2018-07-06T12:55:10.814Z,26.34
2018-07-06T12:57:06.276Z,26.47
2018-07-06T12:58:06.302Z,26.49
2018-07-06T13:00:02.228Z,26.24
2018-07-06T13:01:02.246Z,26.03
2018-07-06T13:02:58.694Z,25.66
2018-07-06T13:03:58.189Z,25.63
2018-07-06T13:05:55.125Z,25.96
2018-07-06T13:06:55.159Z,25.88
2018-07-06T13:08:52.108Z,26.09
2018-07-06T13:09:52.114Z,26.19
2018-07-06T13:11:48.109Z,26.19
2018-07-06T13:12:49.065Z,26.17
2018-07-06T13:14:44.066Z,26.03
2018-07-06T13:15:44.073Z,26.04
2018-07-06T13:17:40.555Z,26.01
2018-07-06T13:18:40.074Z,26.26
2018-07-06T13:20:36.036Z,26.12
2018-07-06T13:21:37.021Z,26.15
2018-07-06T13:23:32.006Z,25.91
2018-07-06T13:24:32.982Z,25.91
2018-07-06T13:26:28.982Z,25.91
2018-07-06T13:27:28.962Z,26.03
2018-07-06T13:29:26.091Z,26.03
2018-07-06T13:30:26.116Z,26.16
2018-07-06T13:32:23.564Z,26.16
2018-07-06T13:33:23.125Z,26.32
2018-07-06T13:35:19.058Z,26.37
2018-07-06T13:36:19.041Z,26.53
2018-07-06T13:38:16.249Z,26.67
2018-07-06T13:39:17.104Z,26.71
2018-07-06T13:41:12.164Z,26.86
2018-07-06T13:42:12.180Z,26.97
2018-07-06T13:44:08.666Z,26.86
2018-07-06T13:45:08.161Z,26.69
2018-07-06T13:47:04.093Z,26.68
2018-07-06T13:48:04.600Z,26.69
2018-07-06T13:50:00.149Z,26.64
2018-07-06T13:51:00.138Z,26.64
2018-07-06T13:52:58.129Z,26.68
2018-07-06T13:53:58.076Z,26.71
2018-07-06T13:55:54.586Z,27.04
2018-07-06T13:56:54.048Z,27.18
2018-07-06T13:58:51.988Z,27.23
2018-07-06T13:59:51.996Z,27.18
2018-07-06T14:01:49.965Z,27.33
2018-07-06T14:02:51.450Z,27.34
2018-07-06T14:04:46.430Z,27.37
2018-07-06T14:05:46.906Z,27.37
2018-07-06T14:07:43.433Z,27.28
2018-07-06T14:08:41.957Z,27.38
2018-07-06T14:10:37.971Z,27.49
2018-07-06T14:11:37.901Z,27.49
2018-07-06T14:13:33.890Z,27.52
2018-07-06T14:14:34.922Z,27.52
2018-07-06T14:16:29.867Z,27.36
2018-07-06T14:17:29.864Z,27.28
2018-07-06T14:19:28.889Z,27.19
2018-07-06T14:20:28.848Z,27.13
2018-07-06T14:22:26.513Z,27.26
2018-07-06T14:23:28.006Z,27.34
2018-07-06T14:25:22.483Z,27.49
2018-07-06T14:26:21.992Z,27.68
2018-07-06T14:28:19.901Z,27.64
2018-07-06T14:29:19.962Z,27.57
2018-07-06T14:31:15.879Z,27.69
2018-07-06T14:32:16.901Z,27.79
2018-07-06T14:34:12.347Z,27.74
2018-07-06T14:35:12.864Z,27.72
2018-07-06T14:37:08.823Z,27.55
2018-07-06T14:38:07.853Z,27.51
2018-07-06T14:40:05.765Z,27.46
2018-07-06T14:41:05.809Z,27.18
2018-07-06T14:43:03.783Z,27.01
2018-07-06T14:44:04.748Z,27.05
2018-07-06T14:46:02.262Z,26.90
2018-07-06T14:47:01.968Z,26.76
2018-07-06T14:48:57.980Z,26.53
2018-07-06T14:49:57.905Z,26.54
2018-07-06T14:51:56.380Z,26.49
2018-07-06T14:52:56.874Z,26.53
2018-07-06T14:54:52.069Z,26.57
2018-07-06T14:55:52.083Z,26.54
2018-07-06T14:57:48.531Z,26.34
2018-07-06T14:58:48.042Z,26.34
2018-07-06T15:00:43.981Z,26.17
2018-07-06T15:01:44.013Z,26.09
2018-07-06T15:03:40.477Z,25.91
2018-07-06T15:04:39.971Z,25.93
2018-07-06T15:06:39.013Z,25.84
2018-07-06T15:07:36.930Z,25.70
2018-07-06T15:09:31.881Z,25.56
2018-07-06T15:10:32.436Z,25.42
2018-07-06T15:12:27.899Z,25.45
2018-07-06T15:13:27.876Z,25.39
2018-07-06T15:15:24.327Z,25.23
2018-07-06T15:16:23.835Z,25.30
2018-07-06T15:18:21.906Z,25.19
2018-07-06T15:19:23.221Z,25.12
2018-07-06T15:21:19.233Z,25.17
2018-07-06T15:22:17.716Z,25.15
2018-07-06T15:24:13.684Z,25.20
2018-07-06T15:25:13.687Z,25.14
2018-07-06T15:27:13.155Z,25.27
2018-07-06T15:28:13.577Z,25.30
2018-07-06T15:30:09.630Z,25.48
2018-07-06T15:31:10.133Z,25.57
2018-07-06T15:33:18.816Z,25.81
2018-07-06T15:35:35.300Z,25.89
2018-07-06T15:36:35.689Z,25.91
2018-07-06T15:38:30.670Z,26.12
2018-07-06T15:39:30.640Z,26.19
2018-07-06T15:41:26.560Z,26.34
2018-07-06T15:42:27.094Z,26.32
2018-07-06T15:44:30.144Z,26.41
2018-07-06T15:45:29.553Z,26.47
2018-07-06T15:47:27.823Z,26.53
2018-07-06T15:48:24.965Z,26.53
2018-07-06T15:50:21.397Z,26.59
2018-07-06T15:51:20.955Z,26.67
2018-07-06T15:53:18.950Z,26.52
2018-07-06T15:54:18.922Z,26.42
2018-07-06T15:56:17.085Z,26.49
2018-07-06T15:57:17.923Z,26.47
2018-07-06T15:59:16.108Z,26.41
2018-07-06T16:00:15.098Z,26.31
2018-07-06T16:02:15.540Z,26.32
2018-07-06T16:03:14.039Z,26.32
2018-07-06T16:05:11.048Z,26.20
2018-07-06T16:06:11.039Z,26.15
2018-07-06T16:08:07.040Z,26.31
2018-07-06T16:09:06.978Z,26.30
2018-07-06T16:11:04.934Z,26.52
2018-07-06T16:12:04.933Z,26.57
2018-07-06T16:14:01.816Z,26.74
2018-07-06T16:15:00.908Z,26.63
2018-07-06T16:16:56.880Z,26.69
2018-07-06T16:17:57.033Z,26.64
2018-07-06T16:19:53.831Z,26.57
2018-07-06T16:20:52.881Z,26.60
2018-07-06T16:22:50.885Z,26.53
2018-07-06T16:23:50.825Z,26.68
2018-07-06T16:25:48.302Z,26.50
2018-07-06T16:26:47.807Z,26.49
2018-07-06T16:28:43.535Z,26.31
2018-07-06T16:29:43.004Z,26.34
2018-07-06T16:31:39.543Z,26.24
2018-07-06T16:32:39.974Z,26.27
2018-07-06T16:34:37.033Z,26.30
2018-07-06T16:35:39.383Z,26.26
2018-07-06T16:37:32.893Z,26.39
2018-07-06T16:38:33.427Z,26.37
2018-07-06T16:40:31.397Z,26.37
2018-07-06T16:41:31.072Z,26.32
2018-07-06T16:43:29.241Z,26.26
2018-07-06T16:44:29.249Z,26.19
2018-07-06T16:46:25.678Z,26.19
2018-07-06T16:47:25.192Z,26.20
2018-07-06T16:49:23.223Z,26.68
2018-07-06T16:50:23.158Z,26.87
2018-07-06T16:52:20.246Z,27.37
2018-07-06T16:53:19.665Z,27.64
2018-07-06T16:55:17.123Z,28.09
2018-07-06T16:56:16.208Z,28.35
2018-07-06T16:58:14.645Z,28.08
2018-07-06T16:59:15.135Z,28.06
2018-07-06T17:01:11.391Z,28.42
2018-07-06T17:02:11.179Z,28.12
2018-07-06T17:04:07.151Z,28.49
2018-07-06T17:05:08.146Z,28.45
2018-07-06T17:07:04.114Z,27.74
2018-07-06T17:08:03.116Z,27.46
2018-07-06T17:09:59.062Z,27.30
2018-07-06T17:10:59.572Z,27.31
2018-07-06T17:12:57.568Z,27.24
2018-07-06T17:13:57.211Z,27.21
2018-07-06T17:15:55.692Z,27.13
2018-07-06T17:16:56.190Z,27.19
2018-07-06T17:18:53.339Z,27.28
2018-07-06T17:19:53.337Z,27.23
2018-07-06T17:21:49.264Z,27.26
2018-07-06T17:22:50.782Z,27.33
2018-07-06T17:24:45.286Z,27.16
2018-07-06T17:25:45.242Z,27.33
2018-07-06T17:27:43.236Z,27.16
2018-07-06T17:28:43.215Z,27.18
2018-07-06T17:30:41.352Z,27.24
2018-07-06T17:31:41.376Z,27.18
2018-07-06T17:33:39.506Z,27.21
2018-07-06T17:34:40.771Z,27.19
2018-07-06T17:36:35.735Z,27.06
2018-07-06T17:38:51.445Z,26.87
2018-07-06T17:39:51.420Z,26.76
2018-07-06T17:42:07.621Z,26.71
2018-07-06T17:42:47.385Z,26.74
2018-07-06T17:44:45.885Z,26.74
2018-07-06T17:46:59.832Z,26.69
2018-07-06T17:47:59.322Z,26.64
2018-07-06T17:49:56.794Z,26.45
2018-07-06T17:50:56.285Z,26.50
2018-07-06T17:52:52.248Z,26.45
2018-07-06T17:55:08.250Z,26.60
2018-07-06T17:56:08.252Z,26.63
2018-07-06T17:58:04.154Z,26.54
2018-07-06T17:59:04.179Z,26.49
2018-07-06T18:01:00.161Z,26.53
2018-07-06T18:02:00.134Z,26.45
2018-07-06T18:03:56.659Z,26.37
2018-07-06T18:04:56.094Z,26.34
2018-07-06T18:06:52.599Z,26.26
2018-07-06T18:07:52.564Z,26.27
2018-07-06T18:09:49.051Z,26.19
2018-07-06T18:10:48.020Z,26.19
2018-07-06T18:12:44.003Z,26.32
2018-07-06T18:13:45.527Z,26.30
2018-07-06T18:15:40.710Z,26.34
2018-07-06T18:16:40.699Z,26.26
2018-07-06T18:18:37.179Z,26.17
2018-07-06T18:19:36.656Z,26.22
2018-07-06T18:21:33.629Z,26.19
2018-07-06T18:22:33.163Z,26.27
2018-07-06T18:24:29.083Z,26.16
2018-07-06T18:25:28.588Z,26.27
2018-07-06T18:27:25.037Z,26.30
2018-07-06T18:28:24.535Z,26.27
2018-07-06T18:30:20.494Z,26.27
2018-07-06T18:31:20.999Z,26.26
2018-07-06T18:33:17.484Z,26.12
2018-07-06T18:34:16.469Z,26.12
2018-07-06T18:36:12.437Z,26.04
2018-07-06T18:37:12.450Z,26.03
2018-07-06T18:39:09.405Z,26.00
2018-07-06T18:40:08.422Z,26.06
2018-07-06T18:42:06.394Z,25.96
2018-07-06T18:43:06.411Z,25.94
2018-07-06T18:45:02.899Z,25.81
2018-07-06T18:46:02.884Z,25.75
2018-07-06T18:47:58.335Z,25.76
2018-07-06T18:48:58.316Z,25.75
2018-07-06T18:50:57.786Z,25.69
2018-07-06T18:51:58.293Z,25.71
2018-07-06T18:53:52.274Z,25.59
2018-07-06T18:54:52.265Z,25.56
2018-07-06T18:56:48.234Z,25.42
2018-07-06T18:57:48.226Z,25.48
2018-07-06T18:59:44.210Z,25.45
2018-07-06T19:00:44.696Z,25.44